createdAt,value
2022-11-07T00:00:50.031Z,118.13
2022-11-07T00:03:17.304Z,109.18
2022-11-07T00:05:44.130Z,120.35
2022-11-07T00:08:10.736Z,115.43
2022-11-07T00:10:37.367Z,114.35
2022-11-07T00:13:04.014Z,113.05
2022-11-07T00:15:30.569Z,116.03
2022-11-07T00:17:58.402Z,117.68
2022-11-07T00:20:25.050Z,125.78
2022-11-07T00:22:51.613Z,101.72
2022-11-07T00:25:18.198Z,110.95
2022-11-07T00:27:44.850Z,107.43
2022-11-07T00:30:12.502Z,103.07
2022-11-07T00:32:39.089Z,104.10
2022-11-07T00:35:06.054Z,113.60
2022-11-07T00:37:33.182Z,123.63
2022-11-07T00:39:59.800Z,113.50
2022-11-07T00:42:26.369Z,108.53
2022-11-07T00:44:52.980Z,131.80
2022-11-07T00:47:19.595Z,109.75
2022-11-07T00:49:46.413Z,105.72
2022-11-07T00:52:12.960Z,100.60
2022-11-07T00:54:39.531Z,109.15
2022-11-07T00:57:06.113Z,115.03
2022-11-07T00:59:32.728Z,113.40
2022-11-07T01:01:59.492Z,126.50
2022-11-07T01:04:44.618Z,118.75
2022-11-07T01:07:11.283Z,111.85
2022-11-07T01:09:38.055Z,114.43
2022-11-07T01:12:05.899Z,116.60
2022-11-07T01:14:32.550Z,111.55
2022-11-07T01:16:59.148Z,96.65
2022-11-07T01:19:25.727Z,108.10
2022-11-07T01:21:52.341Z,96.55
2022-11-07T01:24:19.146Z,104.18
2022-11-07T01:26:49.114Z,91.70
2022-11-07T01:29:17.498Z,95.88
2022-11-07T01:31:44.201Z,95.60
2022-11-07T01:34:11.000Z,98.50
2022-11-07T01:36:37.654Z,109.35
2022-11-07T01:39:04.913Z,124.18
2022-11-07T01:41:34.620Z,135.40
2022-11-07T01:44:07.121Z,111.30
2022-11-07T01:46:37.462Z,108.00
2022-11-07T01:49:10.399Z,130.15
2022-11-07T01:51:43.952Z,106.22
2022-11-07T01:54:13.322Z,125.55
2022-11-07T01:56:42.998Z,108.38
2022-11-07T01:59:12.047Z,101.63
2022-11-07T02:01:38.890Z,113.63
2022-11-07T02:04:06.460Z,89.28
2022-11-07T02:06:54.504Z,95.57
2022-11-07T02:09:21.444Z,95.03
2022-11-07T02:11:48.349Z,92.45
2022-11-07T02:14:16.614Z,108.45
2022-11-07T02:16:43.629Z,104.38
2022-11-07T02:19:38.156Z,94.47
2022-11-07T02:22:32.162Z,84.20
2022-11-07T02:25:01.342Z,104.45
2022-11-07T02:27:31.073Z,124.28
2022-11-07T02:30:25.932Z,108.35
2022-11-07T02:32:53.447Z,113.03
2022-11-07T02:35:35.019Z,176.30
2022-11-07T02:38:05.657Z,150.00
2022-11-07T02:40:32.855Z,136.45
2022-11-07T02:43:00.272Z,135.52
2022-11-07T02:45:29.828Z,96.53
2022-11-07T02:47:56.438Z,108.63
2022-11-07T02:50:23.117Z,113.40
2022-11-07T02:52:49.763Z,109.75
2022-11-07T02:55:17.062Z,111.38
2022-11-07T02:57:43.715Z,125.05
2022-11-07T03:00:12.651Z,121.18
2022-11-07T03:02:39.527Z,102.20
2022-11-07T03:05:06.675Z,115.53
2022-11-07T03:07:33.693Z,112.13
2022-11-07T03:10:00.251Z,98.15
2022-11-07T03:12:26.859Z,85.70
2022-11-07T03:14:53.495Z,94.88
2022-11-07T03:17:20.126Z,106.35
2022-11-07T03:19:46.764Z,101.03
2022-11-07T03:22:13.494Z,85.07
2022-11-07T03:24:40.106Z,91.00
2022-11-07T03:27:06.740Z,87.85
2022-11-07T03:29:33.390Z,106.10
2022-11-07T03:31:59.990Z,94.70
2022-11-07T03:34:26.532Z,94.57
2022-11-07T03:36:53.189Z,100.47
2022-11-07T03:39:25.469Z,110.90
2022-11-07T03:41:52.493Z,117.75
2022-11-07T03:44:19.138Z,122.80
2022-11-07T03:46:45.827Z,103.35
2022-11-07T03:49:12.405Z,99.13
2022-11-07T03:51:39.013Z,104.70
2022-11-07T03:54:05.645Z,108.78
2022-11-07T03:56:32.224Z,94.65
2022-11-07T03:58:58.840Z,96.85
2022-11-07T04:01:25.603Z,85.75
2022-11-07T04:03:56.098Z,94.82
2022-11-07T04:06:23.516Z,95.45
2022-11-07T04:08:50.215Z,90.72
2022-11-07T04:11:35.367Z,87.10
2022-11-07T04:14:20.443Z,86.80
2022-11-07T04:17:05.942Z,91.60
2022-11-07T04:19:32.524Z,86.85
2022-11-07T04:21:59.057Z,76.43
2022-11-07T04:24:25.613Z,113.03
2022-11-07T04:27:10.902Z,95.72
2022-11-07T04:29:37.433Z,131.88
2022-11-07T04:32:04.151Z,112.57
2022-11-07T04:34:31.029Z,132.27
2022-11-07T04:36:57.649Z,124.57
2022-11-07T04:39:24.224Z,131.20
2022-11-07T04:41:50.826Z,103.40
2022-11-07T04:44:17.364Z,108.53
2022-11-07T04:46:43.997Z,119.65
2022-11-07T04:49:10.609Z,110.97
2022-11-07T04:51:42.293Z,102.40
2022-11-07T04:54:15.589Z,122.07
2022-11-07T04:56:42.293Z,121.20
2022-11-07T04:59:09.172Z,102.07
2022-11-07T05:01:35.897Z,114.10
2022-11-07T05:04:02.561Z,126.30
2022-11-07T05:06:29.632Z,103.90
2022-11-07T05:08:56.298Z,113.18
2022-11-07T05:11:22.874Z,103.30
2022-11-07T05:13:49.410Z,105.15
2022-11-07T05:16:19.751Z,119.10
2022-11-07T05:18:46.436Z,117.70
2022-11-07T05:21:13.119Z,107.55
2022-11-07T05:23:39.753Z,94.40
2022-11-07T05:26:06.370Z,99.90
2022-11-07T05:28:38.627Z,95.43
2022-11-07T05:31:06.339Z,97.70
2022-11-07T05:33:33.360Z,98.82
2022-11-07T05:36:17.814Z,105.75
2022-11-07T05:38:47.856Z,103.47
2022-11-07T05:41:16.191Z,104.68
2022-11-07T05:43:43.602Z,108.70
2022-11-07T05:46:10.654Z,111.80
2022-11-07T05:48:37.639Z,123.50
2022-11-07T05:51:05.676Z,103.40
2022-11-07T05:53:32.754Z,112.15
2022-11-07T05:55:59.548Z,97.10
2022-11-07T05:58:26.268Z,92.45
2022-11-07T06:00:52.870Z,86.15
2022-11-07T06:03:22.780Z,115.55
2022-11-07T06:05:49.479Z,95.72
2022-11-07T06:08:16.178Z,109.97
2022-11-07T06:10:44.017Z,106.32
2022-11-07T06:13:14.090Z,124.15
2022-11-07T06:15:41.446Z,91.53
2022-11-07T06:18:13.575Z,90.88
2022-11-07T06:20:40.426Z,100.00
2022-11-07T06:23:07.255Z,86.97
2022-11-07T06:25:35.288Z,89.90
2022-11-07T06:28:10.909Z,91.15
2022-11-07T06:30:37.776Z,92.25
2022-11-07T06:33:11.291Z,76.38
2022-11-07T06:35:38.159Z,87.65
2022-11-07T06:38:06.932Z,95.90
2022-11-07T06:40:33.595Z,83.60
2022-11-07T06:43:15.569Z,76.63
2022-11-07T06:45:43.755Z,84.85
2022-11-07T06:48:10.862Z,99.45
2022-11-07T06:50:38.230Z,95.13
2022-11-07T06:53:10.754Z,95.38
2022-11-07T06:55:38.603Z,91.40
2022-11-07T06:58:05.759Z,85.75
2022-11-07T07:00:34.715Z,74.40
2022-11-07T07:03:01.659Z,76.38
2022-11-07T07:05:28.358Z,93.70
2022-11-07T07:07:55.848Z,77.53
2022-11-07T07:10:24.864Z,77.68
2022-11-07T07:12:52.300Z,78.20
2022-11-07T07:15:19.069Z,83.82
2022-11-07T07:17:45.675Z,83.97
2022-11-07T07:20:12.411Z,76.85
2022-11-07T07:22:39.112Z,90.82
2022-11-07T07:25:06.224Z,85.22
2022-11-07T07:27:32.842Z,87.90
2022-11-07T07:29:59.470Z,99.82
2022-11-07T07:32:26.069Z,81.30
2022-11-07T07:34:52.812Z,85.95
2022-11-07T07:37:19.464Z,83.05
2022-11-07T07:39:46.234Z,92.95
2022-11-07T07:42:12.909Z,81.32
2022-11-07T07:44:39.614Z,84.97
2022-11-07T07:47:11.063Z,108.13
2022-11-07T07:49:38.716Z,89.20
2022-11-07T07:52:05.989Z,86.07
2022-11-07T07:54:32.612Z,83.45
2022-11-07T07:56:59.263Z,84.10
2022-11-07T07:59:26.022Z,93.43
2022-11-07T08:01:56.842Z,87.15
2022-11-07T08:04:24.159Z,90.95
2022-11-07T08:06:50.826Z,83.20
2022-11-07T08:09:17.467Z,94.65
2022-11-07T08:11:44.068Z,93.82
2022-11-07T08:14:11.635Z,89.55
2022-11-07T08:16:38.418Z,100.13
2022-11-07T08:19:05.204Z,95.85
2022-11-07T08:21:31.981Z,94.22
2022-11-07T08:23:58.686Z,95.35
2022-11-07T08:26:26.221Z,96.32
2022-11-07T08:28:54.162Z,95.57
2022-11-07T08:31:21.123Z,95.28
2022-11-07T08:33:47.774Z,90.63
2022-11-07T08:36:14.723Z,84.88
2022-11-07T08:38:41.364Z,85.05
2022-11-07T08:41:08.206Z,74.05
2022-11-07T08:43:35.166Z,65.32
2022-11-07T08:46:01.912Z,66.20
2022-11-07T08:48:28.647Z,63.85
2022-11-07T08:50:56.993Z,67.68
2022-11-07T08:53:25.670Z,65.22
2022-11-07T08:55:52.504Z,57.15
2022-11-07T08:58:19.832Z,56.22
2022-11-07T09:00:46.621Z,57.90
2022-11-07T09:06:01.087Z,50.53
2022-11-07T09:08:30.253Z,58.10
2022-11-07T09:11:01.272Z,59.15
2022-11-07T09:13:28.227Z,52.97
2022-11-07T09:16:02.587Z,51.15
2022-11-07T09:18:29.769Z,52.70
2022-11-07T09:20:57.565Z,62.55
2022-11-07T09:23:24.279Z,73.82
2022-11-07T09:25:51.220Z,81.65
2022-11-07T09:28:17.814Z,87.78
2022-11-07T09:30:44.577Z,87.20
2022-11-07T09:33:11.243Z,85.82
2022-11-07T09:35:37.843Z,75.15
2022-11-07T09:38:04.687Z,81.90
2022-11-07T09:40:43.403Z,85.47
2022-11-07T09:43:28.527Z,87.95
2022-11-07T09:46:16.015Z,89.10
2022-11-07T09:48:57.841Z,102.25
2022-11-07T09:51:39.769Z,96.03
2022-11-07T09:54:18.167Z,102.93
2022-11-07T09:56:44.909Z,95.30
2022-11-07T09:59:22.986Z,104.13
2022-11-07T10:01:49.700Z,110.15
2022-11-07T10:04:25.259Z,95.30
2022-11-07T10:07:11.465Z,114.68
2022-11-07T10:09:38.064Z,113.03
2022-11-07T10:12:07.603Z,116.55
2022-11-07T10:15:10.174Z,104.13
2022-11-07T10:17:54.092Z,118.90
2022-11-07T10:20:25.140Z,154.60
2022-11-07T10:22:57.847Z,170.30
2022-11-07T10:25:35.506Z,158.15
2022-11-07T10:28:08.386Z,153.30
2022-11-07T10:30:35.508Z,158.25
2022-11-07T10:33:10.895Z,157.45
2022-11-07T10:35:47.036Z,165.18
2022-11-07T10:38:22.628Z,162.73
2022-11-07T10:40:51.590Z,156.48
2022-11-07T10:43:34.612Z,171.85
2022-11-07T10:46:16.228Z,165.77
2022-11-07T10:49:00.435Z,150.38
2022-11-07T10:51:53.879Z,164.68
2022-11-07T10:54:22.365Z,148.38
2022-11-07T10:56:57.134Z,152.55
2022-11-07T10:59:31.402Z,148.13
2022-11-07T11:02:02.028Z,158.13
2022-11-07T11:04:31.309Z,154.80
2022-11-07T11:07:03.944Z,136.57
2022-11-07T11:09:33.450Z,128.60
2022-11-07T11:12:27.675Z,140.85
2022-11-07T11:15:12.927Z,152.18
2022-11-07T11:17:39.726Z,157.38
2022-11-07T11:20:23.638Z,157.20
2022-11-07T11:22:50.322Z,146.10
2022-11-07T11:25:21.808Z,167.63
2022-11-07T11:27:52.929Z,154.55
2022-11-07T11:30:21.491Z,142.57
2022-11-07T11:33:06.759Z,149.88
2022-11-07T11:35:47.400Z,158.13
2022-11-07T11:38:19.487Z,156.50
2022-11-07T11:40:56.222Z,153.38
2022-11-07T11:43:48.571Z,137.05
2022-11-07T11:46:31.361Z,157.90
2022-11-07T11:49:06.220Z,155.98
2022-11-07T11:51:40.797Z,154.35
2022-11-07T11:54:12.737Z,145.23
2022-11-07T11:56:53.171Z,155.60
2022-11-07T11:59:52.147Z,154.57
2022-11-07T12:02:43.925Z,151.40
2022-11-07T12:05:26.823Z,160.18
2022-11-07T12:08:11.703Z,168.32
2022-11-07T12:10:50.775Z,154.68
2022-11-07T12:14:01.691Z,148.85
2022-11-07T12:16:50.039Z,140.20
2022-11-07T12:19:34.638Z,142.52
2022-11-07T12:22:03.834Z,148.13
2022-11-07T12:24:37.240Z,172.02
2022-11-07T12:27:06.867Z,152.20
2022-11-07T12:30:02.467Z,147.57
2022-11-07T12:32:43.168Z,145.23
2022-11-07T12:35:31.444Z,134.70
2022-11-07T12:38:01.048Z,129.48
2022-11-07T12:40:31.988Z,132.18
2022-11-07T12:43:20.198Z,133.93
2022-11-07T12:45:54.626Z,144.13
2022-11-07T12:48:39.599Z,140.18
2022-11-07T12:51:09.512Z,134.68
2022-11-07T12:53:51.440Z,143.23
2022-11-07T12:56:23.381Z,128.02
2022-11-07T13:01:23.962Z,141.88
2022-11-07T13:04:11.082Z,127.63
2022-11-07T13:06:57.532Z,112.50
2022-11-07T13:09:55.207Z,120.80
2022-11-07T13:12:40.403Z,119.68
2022-11-07T13:15:11.192Z,121.00
2022-11-07T13:17:41.223Z,130.93
2022-11-07T13:20:29.246Z,127.68
2022-11-07T13:23:01.034Z,118.05
2022-11-07T13:25:32.769Z,122.25
2022-11-07T13:28:01.295Z,118.93
2022-11-07T13:30:30.604Z,113.90
2022-11-07T13:33:03.279Z,120.35
2022-11-07T13:35:31.349Z,115.22
2022-11-07T13:38:08.487Z,112.03
2022-11-07T13:40:44.482Z,103.15
2022-11-07T13:43:18.754Z,107.85
2022-11-07T13:45:45.458Z,104.47
2022-11-07T13:48:33.580Z,118.75
2022-11-07T13:51:15.568Z,127.72
2022-11-07T13:56:49.667Z,120.90
2022-11-07T13:59:38.458Z,129.07
2022-11-07T14:02:05.750Z,123.47
2022-11-07T14:04:40.510Z,122.68
2022-11-07T14:07:16.648Z,121.30
2022-11-07T14:09:44.286Z,121.75
2022-11-07T14:12:22.367Z,119.88
2022-11-07T14:14:50.933Z,115.63
2022-11-07T14:17:19.812Z,104.00
2022-11-07T14:19:46.452Z,115.45
2022-11-07T14:22:22.687Z,113.80
2022-11-07T14:24:55.528Z,120.68
2022-11-07T14:27:23.630Z,113.22
2022-11-07T14:29:57.687Z,118.25
2022-11-07T14:32:28.122Z,128.88
2022-11-07T14:35:00.052Z,151.60
2022-11-07T14:37:26.774Z,147.48
2022-11-07T14:39:53.450Z,145.23
2022-11-07T14:42:23.735Z,150.02
2022-11-07T14:44:57.673Z,156.05
2022-11-07T14:47:30.454Z,137.20
2022-11-07T14:49:57.851Z,122.28
2022-11-07T14:52:36.396Z,125.50
2022-11-07T14:55:06.394Z,109.70
2022-11-07T14:57:35.791Z,107.07
2022-11-07T15:00:06.612Z,84.53
2022-11-07T15:02:33.936Z,93.30
2022-11-07T15:05:09.597Z,92.85
2022-11-07T15:07:47.644Z,89.45
2022-11-07T15:10:24.741Z,94.30
2022-11-07T15:12:58.401Z,108.43
2022-11-07T15:15:37.086Z,99.95
2022-11-07T15:18:06.598Z,101.70
2022-11-07T15:20:37.797Z,99.07
2022-11-07T15:23:13.594Z,107.10
2022-11-07T15:25:44.618Z,106.03
2022-11-07T15:28:43.860Z,123.17
2022-11-07T15:31:29.000Z,114.85
2022-11-07T15:33:57.965Z,97.93
2022-11-07T15:36:25.148Z,107.43
2022-11-07T15:38:52.653Z,104.05
2022-11-07T15:41:19.773Z,99.25
2022-11-07T15:43:46.395Z,106.10
2022-11-07T15:46:39.298Z,95.05
2022-11-07T15:49:07.362Z,103.53
2022-11-07T15:51:33.995Z,88.45
2022-11-07T15:54:00.590Z,91.35
2022-11-07T15:56:27.325Z,92.07
2022-11-07T15:58:55.331Z,91.03
2022-11-07T16:01:22.930Z,92.55
2022-11-07T16:03:49.686Z,76.40
2022-11-07T16:06:25.221Z,68.68
2022-11-07T16:08:52.008Z,74.35
2022-11-07T16:11:18.678Z,66.57
2022-11-07T16:13:45.545Z,74.47
2022-11-07T16:16:21.982Z,63.70
2022-11-07T16:18:51.074Z,60.30
2022-11-07T16:21:20.455Z,71.38
2022-11-07T16:23:49.696Z,58.15
2022-11-07T16:26:27.865Z,65.63
2022-11-07T16:28:54.683Z,58.65
2022-11-07T16:31:21.296Z,58.08
2022-11-07T16:33:48.020Z,53.95
2022-11-07T16:36:31.746Z,65.93
2022-11-07T16:38:58.684Z,56.28
2022-11-07T16:41:25.292Z,58.40
2022-11-07T16:43:52.017Z,58.15
2022-11-07T16:46:21.400Z,55.83
2022-11-07T16:48:50.722Z,63.15
2022-11-07T16:51:21.506Z,58.47
2022-11-07T16:53:48.866Z,64.28
2022-11-07T16:56:32.254Z,62.58
2022-11-07T16:58:59.301Z,60.38
2022-11-07T17:01:27.137Z,64.80
2022-11-07T17:03:54.789Z,69.90
2022-11-07T17:06:33.253Z,75.53
2022-11-07T17:09:08.996Z,72.03
2022-11-07T17:11:38.813Z,69.88
2022-11-07T17:14:05.552Z,72.95
2022-11-07T17:16:35.666Z,64.50
2022-11-07T17:19:03.866Z,77.18
2022-11-07T17:21:36.898Z,84.57
2022-11-07T17:24:04.155Z,76.43
2022-11-07T17:26:34.718Z,71.03
2022-11-07T17:29:02.916Z,75.50
2022-11-07T17:31:29.544Z,65.85
2022-11-07T17:33:57.108Z,65.00
2022-11-07T17:36:36.733Z,65.00
2022-11-07T17:39:11.842Z,71.32
2022-11-07T17:41:40.802Z,75.40
2022-11-07T17:44:07.649Z,66.18
2022-11-07T17:46:35.854Z,69.78
2022-11-07T17:49:07.042Z,65.90
2022-11-07T17:51:35.983Z,63.53
2022-11-07T17:54:02.772Z,74.95
2022-11-07T17:56:30.952Z,69.35
2022-11-07T17:59:18.576Z,66.47
2022-11-07T18:01:46.089Z,67.38
2022-11-07T18:04:13.610Z,72.15
2022-11-07T18:06:42.798Z,73.47
2022-11-07T18:09:15.470Z,74.55
2022-11-07T18:11:42.620Z,66.00
2022-11-07T18:14:11.159Z,82.60
2022-11-07T18:16:37.835Z,76.05
2022-11-07T18:19:05.913Z,92.65
2022-11-07T18:21:32.660Z,95.97
2022-11-07T18:23:59.275Z,98.07
2022-11-07T18:26:31.354Z,96.50
2022-11-07T18:29:12.774Z,100.05
2022-11-07T18:31:41.347Z,91.60
2022-11-07T18:34:11.319Z,91.45
2022-11-07T18:36:40.208Z,77.20
2022-11-07T18:39:19.190Z,61.03
2022-11-07T18:41:45.834Z,68.30
2022-11-07T18:44:12.574Z,65.15
2022-11-07T18:46:39.355Z,61.38
2022-11-07T18:49:06.557Z,63.50
2022-11-07T18:51:35.971Z,52.22
2022-11-07T18:54:04.670Z,58.20
2022-11-07T18:56:31.613Z,62.35
2022-11-07T18:58:58.643Z,58.80
2022-11-07T19:01:28.755Z,56.63
2022-11-07T19:03:57.050Z,58.78
2022-11-07T19:06:25.529Z,58.42
2022-11-07T19:08:52.612Z,57.05
2022-11-07T19:11:26.600Z,56.83
2022-11-07T19:13:53.636Z,57.15
2022-11-07T19:16:24.412Z,56.67
2022-11-07T19:18:51.684Z,51.83
2022-11-07T19:21:21.002Z,59.85
2022-11-07T19:23:48.642Z,56.38
2022-11-07T19:26:15.799Z,52.40
2022-11-07T19:28:42.891Z,52.58
2022-11-07T19:31:12.962Z,51.45
2022-11-07T19:33:41.177Z,55.72
2022-11-07T19:36:16.584Z,52.20
2022-11-07T19:38:44.373Z,54.22
2022-11-07T19:41:15.919Z,62.85
2022-11-07T19:43:44.697Z,52.13
2022-11-07T19:46:15.224Z,49.15
2022-11-07T19:48:42.897Z,47.83
2022-11-07T19:51:19.908Z,51.47
2022-11-07T19:53:54.864Z,48.47
2022-11-07T19:56:22.044Z,52.67
2022-11-07T19:58:48.746Z,52.38
2022-11-07T20:01:18.980Z,51.85
2022-11-07T20:03:47.781Z,52.30
2022-11-07T20:06:17.254Z,50.55
2022-11-07T20:08:46.366Z,49.97
2022-11-07T20:11:16.272Z,53.95
2022-11-07T20:13:43.625Z,48.17
2022-11-07T20:16:10.952Z,50.30
2022-11-07T20:18:39.146Z,52.28
2022-11-07T20:21:13.174Z,53.80
2022-11-07T20:23:41.246Z,53.08
2022-11-07T20:26:13.493Z,49.13
2022-11-07T20:28:40.266Z,46.45
2022-11-07T20:31:12.137Z,48.90
2022-11-07T20:36:08.654Z,45.60
2022-11-07T20:38:36.185Z,48.67
2022-11-07T20:41:08.049Z,48.90
2022-11-07T20:46:06.962Z,54.75
2022-11-07T20:48:34.120Z,60.88
2022-11-07T20:51:14.063Z,48.65
2022-11-07T20:53:46.836Z,43.75
2022-11-07T20:56:16.399Z,36.55
2022-11-07T20:58:43.508Z,44.75
2022-11-07T21:01:38.072Z,38.40
2022-11-07T21:04:11.340Z,38.65
2022-11-07T21:06:38.130Z,38.75
2022-11-07T21:09:06.341Z,38.97
2022-11-07T21:11:33.639Z,42.00
2022-11-07T21:14:00.739Z,44.60
2022-11-07T21:16:28.221Z,41.88
2022-11-07T21:18:56.091Z,48.63
2022-11-07T21:21:27.067Z,42.47
2022-11-07T21:23:54.747Z,39.83
2022-11-07T21:26:24.711Z,49.78
2022-11-07T21:28:51.631Z,46.40
2022-11-07T21:31:25.010Z,50.08
2022-11-07T21:33:52.691Z,46.80
2022-11-07T21:36:21.931Z,51.65
2022-11-07T21:38:48.585Z,49.75
2022-11-07T21:41:16.228Z,59.40
2022-11-07T21:43:43.009Z,60.22
2022-11-07T21:46:18.966Z,57.50
2022-11-07T21:48:46.814Z,56.20
2022-11-07T21:51:16.725Z,55.97
2022-11-07T21:53:43.879Z,51.50
2022-11-07T21:56:22.759Z,66.95
2022-11-07T21:58:56.011Z,56.88
2022-11-07T22:01:23.445Z,60.75
2022-11-07T22:04:06.160Z,64.53
2022-11-07T22:06:35.984Z,63.75
2022-11-07T22:09:04.222Z,61.08
2022-11-07T22:11:30.867Z,64.70
2022-11-07T22:13:57.560Z,56.53
2022-11-07T22:16:24.688Z,57.10
2022-11-07T22:18:51.493Z,56.88
2022-11-07T22:21:21.281Z,56.17
2022-11-07T22:23:48.617Z,52.72
2022-11-07T22:26:18.909Z,43.92
2022-11-07T22:28:46.515Z,55.40
2022-11-07T22:31:19.352Z,55.83
2022-11-07T22:33:46.275Z,59.90
2022-11-07T22:36:13.467Z,54.42
2022-11-07T22:38:42.682Z,57.67
2022-11-07T22:41:12.816Z,55.13
2022-11-07T22:43:39.736Z,49.65
2022-11-07T22:46:14.268Z,55.53
2022-11-07T22:48:41.814Z,49.58
2022-11-07T22:51:14.029Z,46.50
2022-11-07T22:53:41.381Z,49.78
2022-11-07T22:56:12.318Z,42.80
2022-11-07T22:58:39.939Z,43.33
2022-11-07T23:01:13.412Z,45.22
2022-11-07T23:03:40.001Z,44.38
2022-11-07T23:06:06.728Z,49.30
2022-11-07T23:08:34.414Z,42.97
2022-11-07T23:13:51.330Z,41.08
2022-11-07T23:16:33.125Z,39.40
2022-11-07T23:19:01.708Z,37.88
2022-11-07T23:21:29.045Z,35.10
2022-11-07T23:23:57.634Z,40.47
2022-11-07T23:26:25.429Z,43.00
2022-11-07T23:28:52.226Z,48.45
2022-11-07T23:31:20.108Z,46.15
2022-11-07T23:33:48.294Z,43.00
2022-11-07T23:36:17.775Z,47.90
2022-11-07T23:38:46.066Z,43.03
2022-11-07T23:41:15.365Z,44.40
2022-11-07T23:43:42.993Z,51.58
2022-11-07T23:46:34.568Z,44.65
2022-11-07T23:49:22.129Z,52.85
2022-11-07T23:51:49.880Z,49.95
2022-11-07T23:54:35.302Z,56.83
2022-11-07T23:57:03.120Z,58.75
2022-11-07T23:59:50.105Z,60.65
